sensor_id;sensor_type;location;lat;lon;timestamp;P1;durP1;ratioP1;P2;durP2;ratioP2
72123;SDS011;63818;37.134;-8.548;2022-11-18T00:00:45;-1.0;;;-1.0;;
72123;SDS011;63818;37.134;-8.548;2022-11-18T00:05:33;-1.0;;;-1.0;;
72123;SDS011;63818;37.134;-8.548;2022-11-18T00:10:22;-1.0;;;-1.0;;
72123;SDS011;63818;37.134;-8.548;2022-11-18T00:15:13;-1.0;;;-1.0;;
72123;SDS011;63818;37.134;-8.548;2022-11-18T00:20:04;-1.0;;;-1.0;;
72123;SDS011;63818;37.134;-8.548;2022-11-18T00:24:53;-1.0;;;-1.0;;
72123;SDS011;63818;37.134;-8.548;2022-11-18T00:29:41;-1.0;;;-1.0;;
72123;SDS011;63818;37.134;-8.548;2022-11-18T00:34:32;-1.0;;;-1.0;;
72123;SDS011;63818;37.134;-8.548;2022-11-18T00:39:22;-1.0;;;-1.0;;
72123;SDS011;63818;37.134;-8.548;2022-11-18T00:44:11;-1.0;;;-1.0;;
72123;SDS011;63818;37.134;-8.548;2022-11-18T00:49:01;-1.0;;;-1.0;;
72123;SDS011;63818;37.134;-8.548;2022-11-18T00:53:50;-1.0;;;-1.0;;
72123;SDS011;63818;37.134;-8.548;2022-11-18T00:58:38;-1.0;;;-1.0;;
72123;SDS011;63818;37.134;-8.548;2022-11-18T01:03:32;-1.0;;;-1.0;;
72123;SDS011;63818;37.134;-8.548;2022-11-18T01:08:21;-1.0;;;-1.0;;
72123;SDS011;63818;37.134;-8.548;2022-11-18T01:13:12;-1.0;;;-1.0;;
72123;SDS011;63818;37.134;-8.548;2022-11-18T01:18:02;-1.0;;;-1.0;;
72123;SDS011;63818;37.134;-8.548;2022-11-18T01:22:51;-1.0;;;-1.0;;
72123;SDS011;63818;37.134;-8.548;2022-11-18T01:27:40;-1.0;;;-1.0;;
72123;SDS011;63818;37.134;-8.548;2022-11-18T01:32:31;-1.0;;;-1.0;;
72123;SDS011;63818;37.134;-8.548;2022-11-18T01:37:21;-1.0;;;-1.0;;
72123;SDS011;63818;37.134;-8.548;2022-11-18T01:42:13;-1.0;;;-1.0;;
72123;SDS011;63818;37.134;-8.548;2022-11-18T01:47:03;-1.0;;;-1.0;;
72123;SDS011;63818;37.134;-8.548;2022-11-18T01:51:52;-1.0;;;-1.0;;
72123;SDS011;63818;37.134;-8.548;2022-11-18T01:56:46;-1.0;;;-1.0;;
72123;SDS011;63818;37.134;-8.548;2022-11-18T02:01:38;-1.0;;;-1.0;;
72123;SDS011;63818;37.134;-8.548;2022-11-18T02:06:27;-1.0;;;-1.0;;
72123;SDS011;63818;37.134;-8.548;2022-11-18T02:11:16;-1.0;;;-1.0;;
72123;SDS011;63818;37.134;-8.548;2022-11-18T02:16:05;-1.0;;;-1.0;;
72123;SDS011;63818;37.134;-8.548;2022-11-18T02:21:00;-1.0;;;-1.0;;
72123;SDS011;63818;37.134;-8.548;2022-11-18T02:26:45;-1.0;;;-1.0;;
72123;SDS011;63818;37.134;-8.548;2022-11-18T02:31:51;-1.0;;;-1.0;;
72123;SDS011;63818;37.134;-8.548;2022-11-18T02:36:45;-1.0;;;-1.0;;
72123;SDS011;63818;37.134;-8.548;2022-11-18T02:41:39;-1.0;;;-1.0;;
72123;SDS011;63818;37.134;-8.548;2022-11-18T02:46:32;-1.0;;;-1.0;;
72123;SDS011;63818;37.134;-8.548;2022-11-18T02:51:25;-1.0;;;-1.0;;
72123;SDS011;63818;37.134;-8.548;2022-11-18T02:56:17;-1.0;;;-1.0;;
72123;SDS011;63818;37.134;-8.548;2022-11-18T03:01:13;-1.0;;;-1.0;;
72123;SDS011;63818;37.134;-8.548;2022-11-18T03:06:08;-1.0;;;-1.0;;
72123;SDS011;63818;37.134;-8.548;2022-11-18T03:11:09;-1.0;;;-1.0;;
72123;SDS011;63818;37.134;-8.548;2022-11-18T03:16:03;-1.0;;;-1.0;;
72123;SDS011;63818;37.134;-8.548;2022-11-18T03:20:59;-1.0;;;-1.0;;
72123;SDS011;63818;37.134;-8.548;2022-11-18T03:25:54;-1.0;;;-1.0;;
72123;SDS011;63818;37.134;-8.548;2022-11-18T03:30:52;-1.0;;;-1.0;;
72123;SDS011;63818;37.134;-8.548;2022-11-18T03:35:45;-1.0;;;-1.0;;
72123;SDS011;63818;37.134;-8.548;2022-11-18T03:40:40;-1.0;;;-1.0;;
72123;SDS011;63818;37.134;-8.548;2022-11-18T03:45:33;-1.0;;;-1.0;;
72123;SDS011;63818;37.134;-8.548;2022-11-18T03:50:25;-1.0;;;-1.0;;
72123;SDS011;63818;37.134;-8.548;2022-11-18T03:55:18;-1.0;;;-1.0;;
72123;SDS011;63818;37.134;-8.548;2022-11-18T04:00:12;-1.0;;;-1.0;;
72123;SDS011;63818;37.134;-8.548;2022-11-18T04:05:03;-1.0;;;-1.0;;
72123;SDS011;63818;37.134;-8.548;2022-11-18T04:09:55;-1.0;;;-1.0;;
72123;SDS011;63818;37.134;-8.548;2022-11-18T04:14:46;-1.0;;;-1.0;;
72123;SDS011;63818;37.134;-8.548;2022-11-18T04:19:37;-1.0;;;-1.0;;
72123;SDS011;63818;37.134;-8.548;2022-11-18T04:24:26;-1.0;;;-1.0;;
72123;SDS011;63818;37.134;-8.548;2022-11-18T04:29:14;-1.0;;;-1.0;;
72123;SDS011;63818;37.134;-8.548;2022-11-18T04:34:05;-1.0;;;-1.0;;
72123;SDS011;63818;37.134;-8.548;2022-11-18T04:38:54;-1.0;;;-1.0;;
72123;SDS011;63818;37.134;-8.548;2022-11-18T04:43:42;-1.0;;;-1.0;;
72123;SDS011;63818;37.134;-8.548;2022-11-18T04:48:31;-1.0;;;-1.0;;
72123;SDS011;63818;37.134;-8.548;2022-11-18T04:53:20;-1.0;;;-1.0;;
72123;SDS011;63818;37.134;-8.548;2022-11-18T04:58:08;-1.0;;;-1.0;;
72123;SDS011;63818;37.134;-8.548;2022-11-18T05:02:57;-1.0;;;-1.0;;
72123;SDS011;63818;37.134;-8.548;2022-11-18T05:07:45;-1.0;;;-1.0;;
72123;SDS011;63818;37.134;-8.548;2022-11-18T05:12:34;-1.0;;;-1.0;;
72123;SDS011;63818;37.134;-8.548;2022-11-18T05:17:22;-1.0;;;-1.0;;
72123;SDS011;63818;37.134;-8.548;2022-11-18T05:22:11;-1.0;;;-1.0;;
72123;SDS011;63818;37.134;-8.548;2022-11-18T05:27:04;-1.0;;;-1.0;;
72123;SDS011;63818;37.134;-8.548;2022-11-18T05:31:52;-1.0;;;-1.0;;
72123;SDS011;63818;37.134;-8.548;2022-11-18T05:36:41;-1.0;;;-1.0;;
72123;SDS011;63818;37.134;-8.548;2022-11-18T05:41:29;-1.0;;;-1.0;;
72123;SDS011;63818;37.134;-8.548;2022-11-18T05:46:20;-1.0;;;-1.0;;
72123;SDS011;63818;37.134;-8.548;2022-11-18T05:51:09;-1.0;;;-1.0;;
72123;SDS011;63818;37.134;-8.548;2022-11-18T05:55:59;-1.0;;;-1.0;;
72123;SDS011;63818;37.134;-8.548;2022-11-18T06:00:55;-1.0;;;-1.0;;
72123;SDS011;63818;37.134;-8.548;2022-11-18T06:05:47;-1.0;;;-1.0;;
72123;SDS011;63818;37.134;-8.548;2022-11-18T06:10:40;-1.0;;;-1.0;;
72123;SDS011;63818;37.134;-8.548;2022-11-18T06:15:34;-1.0;;;-1.0;;
72123;SDS011;63818;37.134;-8.548;2022-11-18T06:20:26;-1.0;;;-1.0;;
72123;SDS011;63818;37.134;-8.548;2022-11-18T06:25:17;-1.0;;;-1.0;;
72123;SDS011;63818;37.134;-8.548;2022-11-18T06:30:07;-1.0;;;-1.0;;
72123;SDS011;63818;37.134;-8.548;2022-11-18T06:34:56;-1.0;;;-1.0;;
72123;SDS011;63818;37.134;-8.548;2022-11-18T06:39:44;-1.0;;;-1.0;;
72123;SDS011;63818;37.134;-8.548;2022-11-18T06:44:33;-1.0;;;-1.0;;
72123;SDS011;63818;37.134;-8.548;2022-11-18T06:49:22;-1.0;;;-1.0;;
72123;SDS011;63818;37.134;-8.548;2022-11-18T06:54:10;-1.0;;;-1.0;;
72123;SDS011;63818;37.134;-8.548;2022-11-18T06:58:59;-1.0;;;-1.0;;
72123;SDS011;63818;37.134;-8.548;2022-11-18T07:03:50;-1.0;;;-1.0;;
72123;SDS011;63818;37.134;-8.548;2022-11-18T07:08:40;-1.0;;;-1.0;;
72123;SDS011;63818;37.134;-8.548;2022-11-18T07:13:29;-1.0;;;-1.0;;
72123;SDS011;63818;37.134;-8.548;2022-11-18T07:18:17;-1.0;;;-1.0;;
72123;SDS011;63818;37.134;-8.548;2022-11-18T07:23:06;-1.0;;;-1.0;;
72123;SDS011;63818;37.134;-8.548;2022-11-18T07:27:57;-1.0;;;-1.0;;
72123;SDS011;63818;37.134;-8.548;2022-11-18T07:32:48;-1.0;;;-1.0;;
72123;SDS011;63818;37.134;-8.548;2022-11-18T07:37:37;-1.0;;;-1.0;;
72123;SDS011;63818;37.134;-8.548;2022-11-18T07:42:25;-1.0;;;-1.0;;
72123;SDS011;63818;37.134;-8.548;2022-11-18T07:47:17;-1.0;;;-1.0;;
72123;SDS011;63818;37.134;-8.548;2022-11-18T07:52:05;-1.0;;;-1.0;;
72123;SDS011;63818;37.134;-8.548;2022-11-18T07:56:54;-1.0;;;-1.0;;
72123;SDS011;63818;37.134;-8.548;2022-11-18T08:01:52;-1.0;;;-1.0;;
72123;SDS011;63818;37.134;-8.548;2022-11-18T08:06:43;-1.0;;;-1.0;;
72123;SDS011;63818;37.134;-8.548;2022-11-18T08:11:32;-1.0;;;-1.0;;
72123;SDS011;63818;37.134;-8.548;2022-11-18T08:16:25;-1.0;;;-1.0;;
72123;SDS011;63818;37.134;-8.548;2022-11-18T08:21:17;-1.0;;;-1.0;;
72123;SDS011;63818;37.134;-8.548;2022-11-18T08:26:08;-1.0;;;-1.0;;
72123;SDS011;63818;37.134;-8.548;2022-11-18T08:30:57;-1.0;;;-1.0;;
72123;SDS011;63818;37.134;-8.548;2022-11-18T08:35:46;-1.0;;;-1.0;;
72123;SDS011;63818;37.134;-8.548;2022-11-18T08:40:37;-1.0;;;-1.0;;
72123;SDS011;63818;37.134;-8.548;2022-11-18T08:45:31;-1.0;;;-1.0;;
72123;SDS011;63818;37.134;-8.548;2022-11-18T08:50:19;-1.0;;;-1.0;;
72123;SDS011;63818;37.134;-8.548;2022-11-18T08:55:08;-1.0;;;-1.0;;
72123;SDS011;63818;37.134;-8.548;2022-11-18T08:59:57;-1.0;;;-1.0;;
72123;SDS011;63818;37.134;-8.548;2022-11-18T09:04:47;-1.0;;;-1.0;;
72123;SDS011;63818;37.134;-8.548;2022-11-18T09:09:36;-1.0;;;-1.0;;
72123;SDS011;63818;37.134;-8.548;2022-11-18T09:14:25;-1.0;;;-1.0;;
72123;SDS011;63818;37.134;-8.548;2022-11-18T09:19:15;-1.0;;;-1.0;;
72123;SDS011;63818;37.134;-8.548;2022-11-18T09:24:04;-1.0;;;-1.0;;
72123;SDS011;63818;37.134;-8.548;2022-11-18T09:28:56;-1.0;;;-1.0;;
72123;SDS011;63818;37.134;-8.548;2022-11-18T09:33:45;-1.0;;;-1.0;;
72123;SDS011;63818;37.134;-8.548;2022-11-18T09:38:34;-1.0;;;-1.0;;
72123;SDS011;63818;37.134;-8.548;2022-11-18T09:43:24;-1.0;;;-1.0;;
72123;SDS011;63818;37.134;-8.548;2022-11-18T09:48:18;-1.0;;;-1.0;;
72123;SDS011;63818;37.134;-8.548;2022-11-18T09:53:11;-1.0;;;-1.0;;
72123;SDS011;63818;37.134;-8.548;2022-11-18T09:58:06;-1.0;;;-1.0;;
72123;SDS011;63818;37.134;-8.548;2022-11-18T10:03:02;-1.0;;;-1.0;;
72123;SDS011;63818;37.134;-8.548;2022-11-18T10:07:58;-1.0;;;-1.0;;
72123;SDS011;63818;37.134;-8.548;2022-11-18T10:12:51;-1.0;;;-1.0;;
72123;SDS011;63818;37.134;-8.548;2022-11-18T10:17:48;-1.0;;;-1.0;;
72123;SDS011;63818;37.134;-8.548;2022-11-18T10:22:43;-1.0;;;-1.0;;
72123;SDS011;63818;37.134;-8.548;2022-11-18T10:27:40;-1.0;;;-1.0;;
72123;SDS011;63818;37.134;-8.548;2022-11-18T10:32:29;-1.0;;;-1.0;;
72123;SDS011;63818;37.134;-8.548;2022-11-18T10:37:25;-1.0;;;-1.0;;
72123;SDS011;63818;37.134;-8.548;2022-11-18T10:42:15;-1.0;;;-1.0;;
72123;SDS011;63818;37.134;-8.548;2022-11-18T10:47:25;-1.0;;;-1.0;;
72123;SDS011;63818;37.134;-8.548;2022-11-18T10:52:15;-1.0;;;-1.0;;
72123;SDS011;63818;37.134;-8.548;2022-11-18T10:57:12;-1.0;;;-1.0;;
72123;SDS011;63818;37.134;-8.548;2022-11-18T11:02:10;-1.0;;;-1.0;;
72123;SDS011;63818;37.134;-8.548;2022-11-18T11:07:14;-1.0;;;-1.0;;
72123;SDS011;63818;37.134;-8.548;2022-11-18T11:12:10;-1.0;;;-1.0;;
72123;SDS011;63818;37.134;-8.548;2022-11-18T11:17:04;-1.0;;;-1.0;;
72123;SDS011;63818;37.134;-8.548;2022-11-18T11:21:55;-1.0;;;-1.0;;
72123;SDS011;63818;37.134;-8.548;2022-11-18T11:26:51;-1.0;;;-1.0;;
72123;SDS011;63818;37.134;-8.548;2022-11-18T11:31:46;-1.0;;;-1.0;;
72123;SDS011;63818;37.134;-8.548;2022-11-18T11:36:44;-1.0;;;-1.0;;
72123;SDS011;63818;37.134;-8.548;2022-11-18T11:41:42;-1.0;;;-1.0;;
72123;SDS011;63818;37.134;-8.548;2022-11-18T11:46:41;-1.0;;;-1.0;;
72123;SDS011;63818;37.134;-8.548;2022-11-18T11:51:39;-1.0;;;-1.0;;
72123;SDS011;63818;37.134;-8.548;2022-11-18T11:56:35;-1.0;;;-1.0;;
72123;SDS011;63818;37.134;-8.548;2022-11-18T12:01:30;-1.0;;;-1.0;;
72123;SDS011;63818;37.134;-8.548;2022-11-18T12:06:22;-1.0;;;-1.0;;
72123;SDS011;63818;37.134;-8.548;2022-11-18T12:11:11;-1.0;;;-1.0;;
72123;SDS011;63818;37.134;-8.548;2022-11-18T12:16:19;-1.0;;;-1.0;;
72123;SDS011;63818;37.134;-8.548;2022-11-18T12:21:41;-1.0;;;-1.0;;
72123;SDS011;63818;37.134;-8.548;2022-11-18T12:26:45;-1.0;;;-1.0;;
72123;SDS011;63818;37.134;-8.548;2022-11-18T12:31:38;-1.0;;;-1.0;;
72123;SDS011;63818;37.134;-8.548;2022-11-18T12:36:27;-1.0;;;-1.0;;
72123;SDS011;63818;37.134;-8.548;2022-11-18T12:41:37;-1.0;;;-1.0;;
72123;SDS011;63818;37.134;-8.548;2022-11-18T12:46:49;-1.0;;;-1.0;;
72123;SDS011;63818;37.134;-8.548;2022-11-18T12:51:40;-1.0;;;-1.0;;
72123;SDS011;63818;37.134;-8.548;2022-11-18T12:56:31;-1.0;;;-1.0;;
72123;SDS011;63818;37.134;-8.548;2022-11-18T13:01:24;-1.0;;;-1.0;;
72123;SDS011;63818;37.134;-8.548;2022-11-18T13:06:24;-1.0;;;-1.0;;
72123;SDS011;63818;37.134;-8.548;2022-11-18T13:11:16;-1.0;;;-1.0;;
72123;SDS011;63818;37.134;-8.548;2022-11-18T13:16:13;-1.0;;;-1.0;;
72123;SDS011;63818;37.134;-8.548;2022-11-18T13:21:09;-1.0;;;-1.0;;
72123;SDS011;63818;37.134;-8.548;2022-11-18T13:26:03;-1.0;;;-1.0;;
72123;SDS011;63818;37.134;-8.548;2022-11-18T13:30:54;-1.0;;;-1.0;;
72123;SDS011;63818;37.134;-8.548;2022-11-18T13:36:01;-1.0;;;-1.0;;
72123;SDS011;63818;37.134;-8.548;2022-11-18T13:40:50;-1.0;;;-1.0;;
72123;SDS011;63818;37.134;-8.548;2022-11-18T13:45:39;-1.0;;;-1.0;;
72123;SDS011;63818;37.134;-8.548;2022-11-18T13:50:29;-1.0;;;-1.0;;
72123;SDS011;63818;37.134;-8.548;2022-11-18T13:55:21;-1.0;;;-1.0;;
72123;SDS011;63818;37.134;-8.548;2022-11-18T14:00:18;-1.0;;;-1.0;;
72123;SDS011;63818;37.134;-8.548;2022-11-18T14:05:16;-1.0;;;-1.0;;
72123;SDS011;63818;37.134;-8.548;2022-11-18T14:10:08;-1.0;;;-1.0;;
72123;SDS011;63818;37.134;-8.548;2022-11-18T14:15:15;-1.0;;;-1.0;;
72123;SDS011;63818;37.134;-8.548;2022-11-18T14:20:14;-1.0;;;-1.0;;
72123;SDS011;63818;37.134;-8.548;2022-11-18T14:25:15;-1.0;;;-1.0;;
72123;SDS011;63818;37.134;-8.548;2022-11-18T14:30:25;-1.0;;;-1.0;;
72123;SDS011;63818;37.134;-8.548;2022-11-18T14:35:15;-1.0;;;-1.0;;
72123;SDS011;63818;37.134;-8.548;2022-11-18T14:40:11;-1.0;;;-1.0;;
72123;SDS011;63818;37.134;-8.548;2022-11-18T14:45:04;-1.0;;;-1.0;;
72123;SDS011;63818;37.134;-8.548;2022-11-18T14:49:53;-1.0;;;-1.0;;
72123;SDS011;63818;37.134;-8.548;2022-11-18T14:54:41;-1.0;;;-1.0;;
72123;SDS011;63818;37.134;-8.548;2022-11-18T14:59:30;-1.0;;;-1.0;;
72123;SDS011;63818;37.134;-8.548;2022-11-18T15:04:18;-1.0;;;-1.0;;
72123;SDS011;63818;37.134;-8.548;2022-11-18T15:09:06;-1.0;;;-1.0;;
72123;SDS011;63818;37.134;-8.548;2022-11-18T15:13:55;-1.0;;;-1.0;;
72123;SDS011;63818;37.134;-8.548;2022-11-18T15:18:44;-1.0;;;-1.0;;
72123;SDS011;63818;37.134;-8.548;2022-11-18T15:23:33;-1.0;;;-1.0;;
72123;SDS011;63818;37.134;-8.548;2022-11-18T15:28:21;-1.0;;;-1.0;;
72123;SDS011;63818;37.134;-8.548;2022-11-18T15:33:09;-1.0;;;-1.0;;
72123;SDS011;63818;37.134;-8.548;2022-11-18T15:37:57;-1.0;;;-1.0;;
72123;SDS011;63818;37.134;-8.548;2022-11-18T15:42:46;-1.0;;;-1.0;;
72123;SDS011;63818;37.134;-8.548;2022-11-18T15:47:35;-1.0;;;-1.0;;
72123;SDS011;63818;37.134;-8.548;2022-11-18T15:52:23;-1.0;;;-1.0;;
72123;SDS011;63818;37.134;-8.548;2022-11-18T15:57:11;-1.0;;;-1.0;;
72123;SDS011;63818;37.134;-8.548;2022-11-18T16:01:59;-1.0;;;-1.0;;
72123;SDS011;63818;37.134;-8.548;2022-11-18T16:06:48;-1.0;;;-1.0;;
72123;SDS011;63818;37.134;-8.548;2022-11-18T16:11:36;-1.0;;;-1.0;;
72123;SDS011;63818;37.134;-8.548;2022-11-18T16:16:27;-1.0;;;-1.0;;
72123;SDS011;63818;37.134;-8.548;2022-11-18T16:21:16;-1.0;;;-1.0;;
72123;SDS011;63818;37.134;-8.548;2022-11-18T16:26:05;-1.0;;;-1.0;;
72123;SDS011;63818;37.134;-8.548;2022-11-18T16:30:57;-1.0;;;-1.0;;
72123;SDS011;63818;37.134;-8.548;2022-11-18T16:35:49;-1.0;;;-1.0;;
72123;SDS011;63818;37.134;-8.548;2022-11-18T16:40:37;-1.0;;;-1.0;;
72123;SDS011;63818;37.134;-8.548;2022-11-18T16:45:25;-1.0;;;-1.0;;
72123;SDS011;63818;37.134;-8.548;2022-11-18T16:50:14;-1.0;;;-1.0;;
72123;SDS011;63818;37.134;-8.548;2022-11-18T16:55:03;-1.0;;;-1.0;;
72123;SDS011;63818;37.134;-8.548;2022-11-18T16:59:52;-1.0;;;-1.0;;
72123;SDS011;63818;37.134;-8.548;2022-11-18T17:00:54;-1.0;;;-1.0;;
72123;SDS011;63818;37.134;-8.548;2022-11-18T17:02:17;-1.0;;;-1.0;;
72123;SDS011;63818;37.134;-8.548;2022-11-18T17:02:46;-1.0;;;-1.0;;
72123;SDS011;63818;37.134;-8.548;2022-11-18T17:03:50;10.3;;;4.6;;
72123;SDS011;63818;37.134;-8.548;2022-11-18T17:05:35;10.5;;;4.9;;
72123;SDS011;63818;37.134;-8.548;2022-11-18T17:10:25;10.7;;;4.9;;
72123;SDS011;63818;37.134;-8.548;2022-11-18T17:15:10;13.0;;;5.2;;
72123;SDS011;63818;37.134;-8.548;2022-11-18T17:20:05;13.6;;;5.1;;
72123;SDS011;63818;37.134;-8.548;2022-11-18T17:24:51;10.2;;;5.1;;
72123;SDS011;63818;37.134;-8.548;2022-11-18T17:29:37;12.7;;;5.1;;
72123;SDS011;63818;37.134;-8.548;2022-11-18T17:34:23;13.8;;;4.6;;
72123;SDS011;63818;37.134;-8.548;2022-11-18T17:39:11;9.3;;;4.4;;
72123;SDS011;63818;37.134;-8.548;2022-11-18T17:43:57;10.5;;;4.6;;
72123;SDS011;63818;37.134;-8.548;2022-11-18T17:48:43;11.5;;;4.7;;
72123;SDS011;63818;37.134;-8.548;2022-11-18T17:53:29;10.0;;;4.5;;
72123;SDS011;63818;37.134;-8.548;2022-11-18T17:58:14;9.0;;;5.2;;
72123;SDS011;63818;37.134;-8.548;2022-11-18T18:03:05;13.3;;;6.8;;
72123;SDS011;63818;37.134;-8.548;2022-11-18T18:07:54;13.5;;;7.3;;
72123;SDS011;63818;37.134;-8.548;2022-11-18T18:12:40;10.1;;;5.7;;
72123;SDS011;63818;37.134;-8.548;2022-11-18T18:17:26;14.0;;;5.8;;
72123;SDS011;63818;37.134;-8.548;2022-11-18T18:22:18;12.8;;;5.9;;
72123;SDS011;63818;37.134;-8.548;2022-11-18T18:27:04;8.4;;;6.2;;
72123;SDS011;63818;37.134;-8.548;2022-11-18T18:31:52;11.4;;;6.9;;
72123;SDS011;63818;37.134;-8.548;2022-11-18T18:36:38;10.5;;;6.2;;
72123;SDS011;63818;37.134;-8.548;2022-11-18T18:41:24;10.2;;;5.3;;
72123;SDS011;63818;37.134;-8.548;2022-11-18T18:46:11;12.6;;;4.9;;
72123;SDS011;63818;37.134;-8.548;2022-11-18T18:51:03;14.2;;;5.7;;
72123;SDS011;63818;37.134;-8.548;2022-11-18T18:55:54;13.7;;;6.3;;
72123;SDS011;63818;37.134;-8.548;2022-11-18T19:00:40;11.5;;;5.6;;
72123;SDS011;63818;37.134;-8.548;2022-11-18T19:05:28;8.5;;;4.7;;
72123;SDS011;63818;37.134;-8.548;2022-11-18T19:10:14;10.2;;;4.7;;
72123;SDS011;63818;37.134;-8.548;2022-11-18T19:15:05;17.5;;;5.2;;
72123;SDS011;63818;37.134;-8.548;2022-11-18T19:19:51;17.1;;;5.5;;
72123;SDS011;63818;37.134;-8.548;2022-11-18T19:24:37;11.4;;;5.3;;
72123;SDS011;63818;37.134;-8.548;2022-11-18T19:29:22;15.7;;;5.0;;
72123;SDS011;63818;37.134;-8.548;2022-11-18T19:34:13;16.4;;;5.1;;
72123;SDS011;63818;37.134;-8.548;2022-11-18T19:38:59;11.8;;;4.9;;
72123;SDS011;63818;37.134;-8.548;2022-11-18T19:43:47;13.1;;;4.9;;
72123;SDS011;63818;37.134;-8.548;2022-11-18T19:48:33;14.4;;;5.3;;
72123;SDS011;63818;37.134;-8.548;2022-11-18T19:53:19;11.9;;;5.1;;
72123;SDS011;63818;37.134;-8.548;2022-11-18T19:58:04;8.7;;;4.6;;
72123;SDS011;63818;37.134;-8.548;2022-11-18T20:02:52;8.6;;;4.8;;
72123;SDS011;63818;37.134;-8.548;2022-11-18T20:07:41;8.8;;;4.6;;
72123;SDS011;63818;37.134;-8.548;2022-11-18T20:12:27;9.4;;;4.5;;
72123;SDS011;63818;37.134;-8.548;2022-11-18T20:17:13;13.1;;;5.1;;
72123;SDS011;63818;37.134;-8.548;2022-11-18T20:21:59;14.9;;;5.1;;
72123;SDS011;63818;37.134;-8.548;2022-11-18T20:26:45;11.4;;;4.9;;
72123;SDS011;63818;37.134;-8.548;2022-11-18T20:31:31;10.7;;;5.2;;
72123;SDS011;63818;37.134;-8.548;2022-11-18T20:36:20;12.3;;;5.3;;
72123;SDS011;63818;37.134;-8.548;2022-11-18T20:41:08;10.9;;;5.2;;
72123;SDS011;63818;37.134;-8.548;2022-11-18T20:45:59;8.9;;;4.7;;
72123;SDS011;63818;37.134;-8.548;2022-11-18T20:50:45;10.4;;;4.7;;
72123;SDS011;63818;37.134;-8.548;2022-11-18T20:55:31;18.6;;;5.4;;
72123;SDS011;63818;37.134;-8.548;2022-11-18T21:00:20;18.5;;;5.1;;
72123;SDS011;63818;37.134;-8.548;2022-11-18T21:05:13;11.4;;;4.8;;
72123;SDS011;63818;37.134;-8.548;2022-11-18T21:10:00;9.7;;;5.0;;
72123;SDS011;63818;37.134;-8.548;2022-11-18T21:14:45;13.3;;;5.2;;
72123;SDS011;63818;37.134;-8.548;2022-11-18T21:19:34;12.1;;;5.1;;
72123;SDS011;63818;37.134;-8.548;2022-11-18T21:24:20;9.4;;;4.8;;
72123;SDS011;63818;37.134;-8.548;2022-11-18T21:29:10;10.0;;;4.8;;
72123;SDS011;63818;37.134;-8.548;2022-11-18T21:33:58;9.4;;;4.8;;
72123;SDS011;63818;37.134;-8.548;2022-11-18T21:38:46;9.2;;;4.8;;
72123;SDS011;63818;37.134;-8.548;2022-11-18T21:43:33;8.5;;;4.8;;
72123;SDS011;63818;37.134;-8.548;2022-11-18T21:48:23;12.2;;;4.8;;
72123;SDS011;63818;37.134;-8.548;2022-11-18T21:53:11;12.8;;;4.9;;
72123;SDS011;63818;37.134;-8.548;2022-11-18T21:57:57;11.0;;;4.7;;
72123;SDS011;63818;37.134;-8.548;2022-11-18T22:02:43;10.8;;;4.4;;
72123;SDS011;63818;37.134;-8.548;2022-11-18T22:07:29;9.8;;;4.6;;
72123;SDS011;63818;37.134;-8.548;2022-11-18T22:12:21;13.9;;;4.9;;
72123;SDS011;63818;37.134;-8.548;2022-11-18T22:17:09;15.5;;;5.1;;
72123;SDS011;63818;37.134;-8.548;2022-11-18T22:21:57;9.7;;;4.8;;
72123;SDS011;63818;37.134;-8.548;2022-11-18T22:26:47;7.6;;;4.5;;
72123;SDS011;63818;37.134;-8.548;2022-11-18T22:31:34;9.7;;;4.7;;
72123;SDS011;63818;37.134;-8.548;2022-11-18T22:36:21;9.5;;;4.6;;
72123;SDS011;63818;37.134;-8.548;2022-11-18T22:41:10;8.0;;;4.5;;
72123;SDS011;63818;37.134;-8.548;2022-11-18T22:46:01;7.6;;;4.5;;
72123;SDS011;63818;37.134;-8.548;2022-11-18T22:50:56;7.4;;;4.6;;
72123;SDS011;63818;37.134;-8.548;2022-11-18T22:55:45;8.7;;;4.6;;
72123;SDS011;63818;37.134;-8.548;2022-11-18T23:00:33;13.1;;;4.9;;
72123;SDS011;63818;37.134;-8.548;2022-11-18T23:05:21;12.3;;;5.1;;
72123;SDS011;63818;37.134;-8.548;2022-11-18T23:10:08;8.6;;;4.6;;
72123;SDS011;63818;37.134;-8.548;2022-11-18T23:14:57;9.9;;;4.6;;
72123;SDS011;63818;37.134;-8.548;2022-11-18T23:19:43;10.6;;;4.7;;
72123;SDS011;63818;37.134;-8.548;2022-11-18T23:24:31;11.0;;;4.6;;
72123;SDS011;63818;37.134;-8.548;2022-11-18T23:29:17;12.9;;;4.9;;
72123;SDS011;63818;37.134;-8.548;2022-11-18T23:34:03;16.5;;;5.1;;
72123;SDS011;63818;37.134;-8.548;2022-11-18T23:38:55;13.4;;;4.6;;
72123;SDS011;63818;37.134;-8.548;2022-11-18T23:43:45;7.6;;;4.3;;
72123;SDS011;63818;37.134;-8.548;2022-11-18T23:48:35;7.0;;;4.6;;
72123;SDS011;63818;37.134;-8.548;2022-11-18T23:53:24;9.3;;;4.7;;
72123;SDS011;63818;37.134;-8.548;2022-11-18T23:58:10;12.2;;;4.5;;
